Vigan, Philippines

9:33 AM PHT on July 25, 2016 (GMT +0800)
Masintoc | | Change Station

Elev 20 ft 18.08 °N, 120.49 °E | Updated 11 seconds ago

Scattered Clouds
Scattered Clouds
87.3 °F
Feels Like 105 °F
N
1.3
Wind Variable Wind from ESE
Gusts 2.5 mph

Today
High -- | Low -- °F
--% Chance of Precip.
Yesterday
High -- | Low -- °F
Precip. -- in
Pressure 29.77 in
Visibility 6.2 miles
Clouds Scattered Clouds 1900 ft
Scattered Clouds 10000 ft
Heat Index 105 °F
Dew Point 81 °F
Humidity 82%
Rainfall 0.00 in
Snow Depth Not available.
5:34 AM 6:34 PM
Waning Gibbous, 71% visible
METAR RPLI 250100Z 16006KT 9999 SCT019 SCT100 29/26 Q1008 RMK A2977
Pressure 29.77 in
Visibility 6.2 miles
Clouds Scattered Clouds 1900 ft
Scattered Clouds 10000 ft
Heat Index 105 °F
Dew Point 81 °F
Humidity 82%
Rainfall 0.00 in
Snow Depth Not available.
5:34 AM 6:34 PM
Waning Gibbous, 71% visible
METAR RPLI 250100Z 16006KT 9999 SCT019 SCT100 29/26 Q1008 RMK A2977

10-Day Weather Forecast

No radar image for this location.
×

Almanac

Astronomy

Jul. 25, 2016 Rise Set
Actual Time
Civil Twilight
Nautical Twilight
Astronomical Twilight
Moon
Length of Visible Light
Length of Day
Tomorrow will be .
, % of the Moon is Illuminated

Today's Extremes

Country Highs Country Lows

Community

WunderPhotos

Upload Photos

1,927,226 photos uploaded!

WunderBlog® & News

Nearby

Air Quality

  Air Quality AQ Index Pollutant
Not available.

Snow Depth

Station Depth Elevation

Earthquake Activity

City Distance Mag. Time & Date
Minimum magnitude displayed is 2.5.

Coastal Water Temperatures

Place Temperature

Stations

Nearby Weather Stations

Station Location Temp. Windchill Dew Point Humidity Wind Precip. Elev Updated Type